createdAt,value
2023-05-10T00:01:13.809Z,97953.94
2023-05-10T00:03:41.679Z,97950.50
2023-05-10T00:06:09.390Z,97948.70
2023-05-10T00:08:37.254Z,97950.09
2023-05-10T00:11:05.212Z,97949.89
2023-05-10T00:13:33.803Z,97942.98
2023-05-10T00:16:01.472Z,97942.28
2023-05-10T00:18:29.106Z,97940.20
2023-05-10T00:20:56.650Z,97942.95
2023-05-10T00:23:24.422Z,97941.17
2023-05-10T00:25:52.073Z,97939.88
2023-05-10T00:28:19.690Z,97938.39
2023-05-10T00:30:47.343Z,97933.63
2023-05-10T00:33:18.752Z,97935.84
2023-05-10T00:35:46.292Z,97939.09
2023-05-10T00:38:14.767Z,97939.14
2023-05-10T00:40:42.767Z,97943.44
2023-05-10T00:43:12.366Z,97946.19
2023-05-10T00:45:41.255Z,97951.59
2023-05-10T00:48:09.849Z,97950.31
2023-05-10T00:50:40.468Z,97944.78
2023-05-10T00:53:09.380Z,97940.56
2023-05-10T00:55:37.877Z,97942.99
2023-05-10T00:58:06.600Z,97946.83
2023-05-10T01:00:34.953Z,97946.61
2023-05-10T01:03:03.634Z,97948.50
2023-05-10T01:05:32.401Z,97947.48
2023-05-10T01:08:00.131Z,97943.78
2023-05-10T01:10:27.858Z,97942.75
2023-05-10T01:12:56.459Z,97947.56
2023-05-10T01:15:24.741Z,97937.20
2023-05-10T01:17:53.682Z,97934.34
2023-05-10T01:20:21.285Z,97937.04
2023-05-10T01:23:15.291Z,97930.71
2023-05-10T01:26:07.910Z,97926.73
2023-05-10T01:29:19.932Z,97925.20
2023-05-10T01:32:17.170Z,97925.77
2023-05-10T01:35:30.178Z,97929.28
2023-05-10T01:38:14.660Z,97922.42
2023-05-10T01:40:50.874Z,97924.84
2023-05-10T01:43:24.989Z,97923.55
2023-05-10T01:46:06.887Z,97918.23
2023-05-10T01:48:34.623Z,97917.48
2023-05-10T01:51:03.631Z,97913.24
2023-05-10T01:53:33.069Z,97918.86
2023-05-10T01:56:02.595Z,97909.03
2023-05-10T01:58:33.742Z,97911.95
2023-05-10T02:01:04.417Z,97909.05
2023-05-10T02:03:35.280Z,97909.33
2023-05-10T02:06:04.418Z,97913.08
2023-05-10T02:08:34.457Z,97912.83
2023-05-10T02:11:03.025Z,97912.58
2023-05-10T02:13:32.766Z,97911.78
2023-05-10T02:16:02.708Z,97909.91
2023-05-10T02:18:33.188Z,97913.65
2023-05-10T02:21:03.141Z,97909.14
2023-05-10T02:23:32.236Z,97909.14
2023-05-10T02:26:02.380Z,97906.48
2023-05-10T02:28:30.905Z,97908.07
2023-05-10T02:30:58.755Z,97902.73
2023-05-10T02:33:27.909Z,97900.36
2023-05-10T02:35:56.954Z,97903.03
2023-05-10T02:38:26.192Z,97900.91
2023-05-10T02:40:55.475Z,97898.75
2023-05-10T02:43:24.748Z,97904.08
2023-05-10T02:45:52.958Z,97899.57
2023-05-10T02:48:20.432Z,97898.49
2023-05-10T02:51:08.501Z,97906.48
2023-05-10T02:53:39.417Z,97898.20
2023-05-10T02:56:17.674Z,97901.70
2023-05-10T02:58:45.415Z,97902.74
2023-05-10T03:01:13.144Z,97897.16
2023-05-10T03:03:40.780Z,97900.91
2023-05-10T03:06:10.092Z,97902.48
2023-05-10T03:08:37.975Z,97899.31
2023-05-10T03:11:42.944Z,97899.03
2023-05-10T03:14:36.139Z,97901.72
2023-05-10T03:17:25.454Z,97896.69
2023-05-10T03:20:02.797Z,97897.22
2023-05-10T03:22:50.977Z,97896.97
2023-05-10T03:25:21.931Z,97899.59
2023-05-10T03:27:50.142Z,97898.80
2023-05-10T03:30:19.843Z,97898.17
2023-05-10T03:32:47.487Z,97893.16
2023-05-10T03:35:17.130Z,97898.25
2023-05-10T03:37:45.187Z,97895.86
2023-05-10T03:40:13.984Z,97894.97
2023-05-10T03:42:42.950Z,97887.19
2023-05-10T03:45:12.451Z,97887.75
2023-05-10T03:47:40.037Z,97884.06
2023-05-10T03:50:08.632Z,97880.77
2023-05-10T03:52:36.154Z,97879.58
2023-05-10T03:55:04.201Z,97876.41
2023-05-10T03:57:31.945Z,97878.36
2023-05-10T03:59:59.691Z,97877.62
2023-05-10T04:02:27.459Z,97874.21
2023-05-10T04:04:55.497Z,97871.82
2023-05-10T04:07:23.319Z,97877.05
2023-05-10T04:09:51.090Z,97876.96
2023-05-10T04:12:18.512Z,97876.27
2023-05-10T04:14:46.045Z,97868.50
2023-05-10T04:17:13.742Z,97874.30
2023-05-10T04:19:41.574Z,97871.78
2023-05-10T04:22:09.328Z,97879.13
2023-05-10T04:24:37.019Z,97873.20
2023-05-10T04:27:06.417Z,97870.39
2023-05-10T04:29:33.856Z,97867.43
2023-05-10T04:32:01.623Z,97868.02
2023-05-10T04:36:56.735Z,97867.08
2023-05-10T04:39:24.132Z,97874.22
2023-05-10T04:41:51.495Z,97872.48
2023-05-10T04:44:19.054Z,97868.94
2023-05-10T04:46:46.806Z,97870.97
2023-05-10T04:49:14.910Z,97871.44
2023-05-10T04:51:42.467Z,97866.87
2023-05-10T04:54:11.376Z,97862.83
2023-05-10T04:56:38.831Z,97863.37
2023-05-10T04:59:06.353Z,97864.23
2023-05-10T05:01:34.132Z,97866.95
2023-05-10T05:04:01.908Z,97864.73
2023-05-10T05:06:29.704Z,97864.27
2023-05-10T05:08:57.255Z,97865.56
2023-05-10T05:11:26.110Z,97859.02
2023-05-10T05:13:53.962Z,97859.09
2023-05-10T05:16:21.931Z,97862.21
2023-05-10T05:18:49.792Z,97860.88
2023-05-10T05:21:22.848Z,97857.11
2023-05-10T05:23:53.412Z,97857.20
2023-05-10T05:26:21.835Z,97857.94
2023-05-10T05:28:51.291Z,97856.27
2023-05-10T05:31:19.488Z,97857.13
2023-05-10T05:33:47.025Z,97851.42
2023-05-10T05:36:14.603Z,97856.27
2023-05-10T05:38:42.453Z,97853.77
2023-05-10T05:41:10.198Z,97847.05
2023-05-10T05:43:38.325Z,97848.48
2023-05-10T05:46:06.770Z,97853.28
2023-05-10T05:48:37.116Z,97850.34
2023-05-10T05:51:07.093Z,97847.44
2023-05-10T05:53:34.109Z,97849.05
2023-05-10T05:56:01.671Z,97852.28
2023-05-10T05:58:29.136Z,97846.06
2023-05-10T06:00:57.260Z,97849.21
2023-05-10T06:03:25.170Z,97853.31
2023-05-10T06:05:52.989Z,97848.97
2023-05-10T06:08:20.956Z,97840.21
2023-05-10T06:10:48.512Z,97835.15
2023-05-10T06:13:16.051Z,97838.33
2023-05-10T06:15:43.578Z,97838.72
2023-05-10T06:18:11.205Z,97834.39
2023-05-10T06:20:38.847Z,97834.39
2023-05-10T06:23:06.799Z,97832.71
2023-05-10T06:25:34.543Z,97836.67
2023-05-10T06:28:03.149Z,97828.45
2023-05-10T06:30:30.747Z,97826.30
2023-05-10T06:32:58.453Z,97825.53
2023-05-10T06:35:26.634Z,97830.72
2023-05-10T06:37:54.680Z,97819.68
2023-05-10T06:40:22.238Z,97815.97
2023-05-10T06:42:49.857Z,97816.03
2023-05-10T06:45:21.423Z,97819.37
2023-05-10T06:47:49.422Z,97828.28
2023-05-10T06:50:16.952Z,97821.80
2023-05-10T06:52:44.616Z,97828.91
2023-05-10T06:55:12.184Z,97823.58
2023-05-10T06:57:39.736Z,97826.30
2023-05-10T07:00:09.970Z,97833.23
2023-05-10T07:02:37.918Z,97831.28
2023-05-10T07:05:07.713Z,97824.34
2023-05-10T07:07:35.502Z,97825.34
2023-05-10T07:10:05.468Z,97828.25
2023-05-10T07:12:33.053Z,97826.13
2023-05-10T07:15:00.701Z,97820.41
2023-05-10T07:17:28.249Z,97824.55
2023-05-10T07:19:55.798Z,97819.36
2023-05-10T07:22:28.060Z,97809.28
2023-05-10T07:24:56.088Z,97814.66
2023-05-10T07:27:23.641Z,97820.63
2023-05-10T07:29:53.492Z,97820.52
2023-05-10T07:32:26.425Z,97822.83
2023-05-10T07:34:54.255Z,97818.11
2023-05-10T07:37:21.682Z,97820.55
2023-05-10T07:39:49.299Z,97818.53
2023-05-10T07:42:16.887Z,97815.76
2023-05-10T07:44:44.651Z,97821.79
2023-05-10T07:47:12.425Z,97815.44
2023-05-10T07:49:41.243Z,97819.48
2023-05-10T07:52:08.853Z,97821.41
2023-05-10T07:54:36.267Z,97818.61
2023-05-10T07:57:03.984Z,97815.59
2023-05-10T07:59:31.712Z,97822.83
2023-05-10T08:01:59.246Z,97825.06
2023-05-10T08:04:26.864Z,97822.05
2023-05-10T08:06:54.607Z,97823.45
2023-05-10T08:09:24.140Z,97825.28
2023-05-10T08:11:51.758Z,97820.12
2023-05-10T08:14:20.413Z,97809.58
2023-05-10T08:16:48.630Z,97813.89
2023-05-10T08:19:18.153Z,97809.36
2023-05-10T08:21:46.663Z,97822.06
2023-05-10T08:24:14.433Z,97823.03
2023-05-10T08:26:42.175Z,97820.17
2023-05-10T08:29:10.100Z,97821.72
2023-05-10T08:31:37.536Z,97823.77
2023-05-10T08:34:05.121Z,97815.44
2023-05-10T08:36:32.713Z,97815.65
2023-05-10T08:39:01.393Z,97821.57
2023-05-10T08:41:33.756Z,97818.54
2023-05-10T08:44:05.582Z,97820.85
2023-05-10T08:46:37.081Z,97818.74
2023-05-10T08:49:08.215Z,97821.68
2023-05-10T08:51:41.916Z,97816.59
2023-05-10T08:54:10.963Z,97816.66
2023-05-10T08:56:38.672Z,97811.16
2023-05-10T08:59:06.692Z,97820.05
2023-05-10T09:01:37.447Z,97815.97
2023-05-10T09:04:05.987Z,97805.97
2023-05-10T09:06:34.614Z,97807.28
2023-05-10T09:09:03.969Z,97803.72
2023-05-10T09:11:31.961Z,97803.31
2023-05-10T09:14:01.614Z,97804.36
2023-05-10T09:16:29.341Z,97815.97
2023-05-10T09:18:57.269Z,97805.22
2023-05-10T09:21:25.803Z,97794.78
2023-05-10T09:23:54.867Z,97803.45
2023-05-10T09:26:25.305Z,97802.66
2023-05-10T09:28:59.269Z,97803.16
2023-05-10T09:31:56.841Z,97798.19
2023-05-10T09:34:33.801Z,97803.43
2023-05-10T09:37:04.841Z,97792.95
2023-05-10T09:39:35.964Z,97794.27
2023-05-10T09:42:08.233Z,97788.05
2023-05-10T09:44:36.575Z,97789.61
2023-05-10T09:47:05.128Z,97791.59
2023-05-10T09:49:34.066Z,97793.27
2023-05-10T09:52:06.958Z,97786.22
2023-05-10T09:54:35.497Z,97780.16
2023-05-10T09:57:03.816Z,97781.05
2023-05-10T09:59:35.963Z,97778.70
2023-05-10T10:02:03.735Z,97782.20
2023-05-10T10:04:32.192Z,97774.63
2023-05-10T10:07:05.357Z,97773.20
2023-05-10T10:09:35.334Z,97772.83
2023-05-10T10:12:04.332Z,97766.11
2023-05-10T10:14:35.043Z,97762.31
2023-05-10T10:17:07.206Z,97759.07
2023-05-10T10:19:38.403Z,97768.84
2023-05-10T10:22:06.362Z,97755.36
2023-05-10T10:24:34.198Z,97753.09
2023-05-10T10:27:22.461Z,97748.85
2023-05-10T10:30:31.947Z,97745.09
2023-05-10T10:33:34.372Z,97753.27
2023-05-10T10:36:04.435Z,97747.44
2023-05-10T10:38:48.957Z,97744.55
2023-05-10T10:41:57.218Z,97744.39
2023-05-10T10:44:38.495Z,97742.50
2023-05-10T10:47:26.003Z,97743.80
2023-05-10T10:50:12.952Z,97750.47
2023-05-10T10:52:41.971Z,97740.38
2023-05-10T10:55:22.673Z,97734.02
2023-05-10T10:57:58.666Z,97751.67
2023-05-10T11:00:33.586Z,97750.64
2023-05-10T11:03:13.146Z,97738.16
2023-05-10T11:05:46.338Z,97730.75
2023-05-10T11:08:32.634Z,97735.32
2023-05-10T11:11:04.719Z,97738.30
2023-05-10T11:13:51.403Z,97737.97
2023-05-10T11:16:24.140Z,97741.50
2023-05-10T11:19:08.463Z,97725.84
2023-05-10T11:21:59.155Z,97730.16
2023-05-10T11:24:28.591Z,97733.97
2023-05-10T11:26:57.034Z,97724.98
2023-05-10T11:29:26.978Z,97730.09
2023-05-10T11:32:00.487Z,97724.04
2023-05-10T11:34:33.472Z,97729.63
2023-05-10T11:37:03.051Z,97728.77
2023-05-10T11:39:34.054Z,97722.28
2023-05-10T11:42:01.884Z,97724.15
2023-05-10T11:44:31.920Z,97726.09
2023-05-10T11:47:04.481Z,97723.08
2023-05-10T11:49:34.416Z,97719.09
2023-05-10T11:52:09.214Z,97719.09
2023-05-10T11:54:38.233Z,97712.45
2023-05-10T11:57:05.852Z,97707.13
2023-05-10T11:59:33.681Z,97708.64
2023-05-10T12:02:38.496Z,97704.56
2023-05-10T12:05:09.288Z,97710.05
2023-05-10T12:07:38.323Z,97702.40
2023-05-10T12:10:08.799Z,97712.17
2023-05-10T12:12:42.352Z,97712.59
2023-05-10T12:15:23.350Z,97703.59
2023-05-10T12:17:51.933Z,97709.02
2023-05-10T12:20:26.984Z,97706.37
2023-05-10T12:22:59.668Z,97702.95
2023-05-10T12:25:35.729Z,97704.74
2023-05-10T12:28:09.261Z,97708.03
2023-05-10T12:30:38.062Z,97698.06
2023-05-10T12:33:15.529Z,97688.76
2023-05-10T12:35:50.289Z,97691.99
2023-05-10T12:38:31.144Z,97686.10
2023-05-10T12:41:04.638Z,97682.47
2023-05-10T12:43:33.764Z,97688.95
2023-05-10T12:46:14.468Z,97679.29
2023-05-10T12:48:44.529Z,97669.19
2023-05-10T12:51:13.978Z,97684.41
2023-05-10T12:53:44.698Z,97668.23
2023-05-10T12:56:12.206Z,97679.22
2023-05-10T12:58:41.912Z,97668.75
2023-05-10T13:01:10.068Z,97669.04
2023-05-10T13:03:38.162Z,97671.27
2023-05-10T13:06:10.337Z,97670.50
2023-05-10T13:08:38.653Z,97658.69
2023-05-10T13:11:07.248Z,97661.30
2023-05-10T13:13:34.977Z,97656.05
2023-05-10T13:16:02.880Z,97646.64
2023-05-10T13:18:30.665Z,97643.25
2023-05-10T13:20:58.280Z,97631.72
2023-05-10T13:23:25.838Z,97638.81
2023-05-10T13:25:57.490Z,97634.34
2023-05-10T13:28:26.785Z,97637.05
2023-05-10T13:31:00.633Z,97632.27
2023-05-10T13:33:29.905Z,97628.43
2023-05-10T13:35:57.398Z,97615.97
2023-05-10T13:38:27.258Z,97623.42
2023-05-10T13:40:55.034Z,97621.27
2023-05-10T13:43:25.493Z,97627.05
2023-05-10T13:45:56.287Z,97617.11
2023-05-10T13:48:31.121Z,97620.47
2023-05-10T13:51:02.124Z,97617.91
2023-05-10T13:53:34.602Z,97612.91
2023-05-10T13:56:05.235Z,97615.26
2023-05-10T13:58:36.243Z,97611.32
2023-05-10T14:01:05.622Z,97607.34
2023-05-10T14:03:34.125Z,97618.55
2023-05-10T14:06:01.963Z,97607.19
2023-05-10T14:08:29.753Z,97604.34
2023-05-10T14:10:57.565Z,97605.58
2023-05-10T14:13:25.476Z,97606.09
2023-05-10T14:15:54.453Z,97601.59
2023-05-10T14:18:24.440Z,97603.72
2023-05-10T14:20:52.252Z,97597.07
2023-05-10T14:23:21.879Z,97597.39
2023-05-10T14:25:49.324Z,97593.39
2023-05-10T14:28:18.257Z,97590.73
2023-05-10T14:30:45.958Z,97586.95
2023-05-10T14:33:13.907Z,97583.80
2023-05-10T14:35:41.567Z,97589.46
2023-05-10T14:38:09.291Z,97591.91
2023-05-10T14:40:37.013Z,97589.73
2023-05-10T14:43:04.694Z,97589.83
2023-05-10T14:45:33.180Z,97593.78
2023-05-10T14:48:03.638Z,97588.67
2023-05-10T14:50:36.884Z,97589.67
2023-05-10T14:53:01.940Z,97586.89
2023-05-10T14:55:30.597Z,97586.25
2023-05-10T14:57:58.844Z,97581.67
2023-05-10T15:00:29.524Z,97575.19
2023-05-10T15:02:58.088Z,97579.00
2023-05-10T15:05:26.284Z,97577.48
2023-05-10T15:07:54.471Z,97574.80
2023-05-10T15:10:22.671Z,97570.56
2023-05-10T15:12:52.638Z,97566.89
2023-05-10T15:15:21.237Z,97571.41
2023-05-10T15:17:49.259Z,97569.66
2023-05-10T15:20:20.200Z,97568.33
2023-05-10T15:22:48.022Z,97570.09
2023-05-10T15:25:16.649Z,97573.39
2023-05-10T15:27:45.061Z,97571.14
2023-05-10T15:30:13.571Z,97568.77
2023-05-10T15:32:41.701Z,97562.89
2023-05-10T15:35:11.600Z,97563.67
2023-05-10T15:37:40.850Z,97568.77
2023-05-10T15:40:13.428Z,97567.05
2023-05-10T15:42:41.402Z,97568.61
2023-05-10T15:45:11.207Z,97564.56
2023-05-10T15:47:40.212Z,97572.07
2023-05-10T15:50:10.719Z,97568.54
2023-05-10T15:52:39.421Z,97569.77
2023-05-10T15:55:11.739Z,97571.56
2023-05-10T15:57:42.078Z,97569.81
2023-05-10T16:00:11.442Z,97570.40
2023-05-10T16:02:43.451Z,97567.05
2023-05-10T16:05:11.337Z,97575.76
2023-05-10T16:07:41.395Z,97578.47
2023-05-10T16:10:11.443Z,97570.11
2023-05-10T16:12:39.744Z,97573.56
2023-05-10T16:15:08.952Z,97576.83
2023-05-10T16:17:36.900Z,97575.56
2023-05-10T16:20:06.727Z,97569.57
2023-05-10T16:22:35.790Z,97571.59
2023-05-10T16:25:04.155Z,97581.24
2023-05-10T16:27:32.999Z,97576.23
2023-05-10T16:30:00.615Z,97572.88
2023-05-10T16:32:28.500Z,97578.89
2023-05-10T16:34:55.842Z,97578.93
2023-05-10T16:37:38.465Z,97574.49
2023-05-10T16:40:10.217Z,97577.14
2023-05-10T16:42:39.548Z,97581.80
2023-05-10T16:45:08.678Z,97582.38
2023-05-10T16:47:38.178Z,97579.18
2023-05-10T16:50:08.340Z,97592.31
2023-05-10T16:52:36.612Z,97590.68
2023-05-10T16:55:04.967Z,97594.47
2023-05-10T16:57:32.711Z,97595.39
2023-05-10T17:00:09.191Z,97598.09
2023-05-10T17:02:37.293Z,97598.96
2023-05-10T17:05:05.884Z,97611.91
2023-05-10T17:07:34.292Z,97604.05
2023-05-10T17:10:03.470Z,97606.52
2023-05-10T17:12:31.874Z,97611.64
2023-05-10T17:14:59.245Z,97606.53
2023-05-10T17:17:26.960Z,97607.14
2023-05-10T17:19:54.353Z,97612.71
2023-05-10T17:22:21.968Z,97609.91
2023-05-10T17:24:49.788Z,97611.88
2023-05-10T17:27:17.565Z,97622.17
2023-05-10T17:29:45.185Z,97621.98
2023-05-10T17:32:12.722Z,97621.53
2023-05-10T17:34:40.356Z,97626.86
2023-05-10T17:37:09.042Z,97624.41
2023-05-10T17:39:39.913Z,97630.06
2023-05-10T17:42:24.525Z,97626.36
2023-05-10T17:44:56.600Z,97631.33
2023-05-10T17:47:27.905Z,97636.97
2023-05-10T17:49:55.495Z,97637.45
2023-05-10T17:52:23.049Z,97636.68
2023-05-10T17:54:50.631Z,97647.05
2023-05-10T17:57:23.121Z,97650.48
2023-05-10T17:59:50.969Z,97663.55
2023-05-10T18:02:18.505Z,97665.59
2023-05-10T18:04:48.197Z,97671.37
2023-05-10T18:07:25.528Z,97664.40
2023-05-10T18:10:00.676Z,97678.39
2023-05-10T18:12:31.511Z,97678.05
2023-05-10T18:14:59.340Z,97685.27
2023-05-10T18:17:37.692Z,97684.95
2023-05-10T18:20:10.406Z,97688.58
2023-05-10T18:22:40.596Z,97688.58
2023-05-10T18:25:09.199Z,97691.39
2023-05-10T18:27:38.731Z,97695.91
2023-05-10T18:30:09.686Z,97696.23
2023-05-10T18:32:39.867Z,97702.55
2023-05-10T18:35:12.937Z,97705.72
2023-05-10T18:37:48.300Z,97705.82
2023-05-10T18:40:22.239Z,97711.34
2023-05-10T18:42:51.368Z,97718.90
2023-05-10T18:45:20.715Z,97720.02
2023-05-10T18:47:48.504Z,97721.02
2023-05-10T18:50:17.001Z,97721.34
2023-05-10T18:52:45.021Z,97730.00
2023-05-10T18:55:12.983Z,97725.93
2023-05-10T18:57:41.996Z,97728.14
2023-05-10T19:00:12.013Z,97729.94
2023-05-10T19:02:45.652Z,97736.67
2023-05-10T19:05:16.297Z,97742.20
2023-05-10T19:07:49.015Z,97735.86
2023-05-10T19:10:16.336Z,97743.63
2023-05-10T19:12:44.048Z,97743.59
2023-05-10T19:15:11.937Z,97743.47
2023-05-10T19:17:40.962Z,97750.66
2023-05-10T19:20:10.592Z,97754.27
2023-05-10T19:22:54.107Z,97757.16
2023-05-10T19:25:11.239Z,97753.20
2023-05-10T19:27:38.928Z,97751.72
2023-05-10T19:30:08.316Z,97754.55
2023-05-10T19:32:36.448Z,97759.13
2023-05-10T19:35:05.099Z,97755.42
2023-05-10T19:37:34.742Z,97757.64
2023-05-10T19:40:05.905Z,97754.73
2023-05-10T19:42:33.312Z,97761.70
2023-05-10T19:45:01.948Z,97767.66
2023-05-10T19:47:31.083Z,97761.25
2023-05-10T19:49:58.999Z,97762.26
2023-05-10T19:52:26.978Z,97767.91
2023-05-10T19:54:54.614Z,97766.97
2023-05-10T19:57:22.210Z,97770.01
2023-05-10T19:59:49.739Z,97771.92
2023-05-10T20:02:17.423Z,97778.20
2023-05-10T20:04:45.683Z,97775.61
2023-05-10T20:07:13.578Z,97777.62
2023-05-10T20:09:43.837Z,97780.50
2023-05-10T20:12:13.429Z,97779.36
2023-05-10T20:14:41.186Z,97780.88
2023-05-10T20:17:08.997Z,97779.52
2023-05-10T20:19:36.919Z,97782.95
2023-05-10T20:22:05.049Z,97786.77
2023-05-10T20:24:32.457Z,97790.91
2023-05-10T20:27:00.270Z,97792.34
2023-05-10T20:29:28.443Z,97791.98
2023-05-10T20:31:56.173Z,97795.41
2023-05-10T20:34:24.341Z,97787.29
2023-05-10T20:36:52.685Z,97790.63
2023-05-10T20:39:21.230Z,97788.02
2023-05-10T20:41:49.038Z,97769.20
2023-05-10T20:44:16.741Z,97793.92
2023-05-10T20:46:44.669Z,97787.23
2023-05-10T20:49:13.592Z,97791.47
2023-05-10T20:51:41.380Z,97792.98
2023-05-10T20:54:09.121Z,97789.05
2023-05-10T20:56:36.716Z,97788.91
2023-05-10T20:59:04.150Z,97791.76
2023-05-10T21:01:32.275Z,97782.03
2023-05-10T21:03:59.964Z,97783.23
2023-05-10T21:06:27.672Z,97794.09
2023-05-10T21:08:58.103Z,97797.39
2023-05-10T21:11:26.237Z,97796.45
2023-05-10T21:13:53.994Z,97803.91
2023-05-10T21:16:22.555Z,97795.44
2023-05-10T21:18:50.227Z,97794.02
2023-05-10T21:21:18.380Z,97789.27
2023-05-10T21:23:46.838Z,97798.24
2023-05-10T21:26:15.817Z,97798.09
2023-05-10T21:28:45.351Z,97793.34
2023-05-10T21:31:15.588Z,97796.97
2023-05-10T21:33:43.663Z,97791.98
2023-05-10T21:36:11.586Z,97791.20
2023-05-10T21:38:40.434Z,97789.14
2023-05-10T21:41:08.171Z,97791.37
2023-05-10T21:43:35.517Z,97788.13
2023-05-10T21:46:03.626Z,97790.56
2023-05-10T21:48:31.159Z,97787.34
2023-05-10T21:51:01.120Z,97786.52
2023-05-10T21:53:32.383Z,97797.29
2023-05-10T21:56:00.396Z,97786.62
2023-05-10T21:58:28.833Z,97787.48
2023-05-10T22:00:56.796Z,97790.97
2023-05-10T22:03:24.833Z,97796.13
2023-05-10T22:05:52.705Z,97800.48
2023-05-10T22:08:20.353Z,97806.50
2023-05-10T22:10:48.205Z,97804.67
2023-05-10T22:13:16.007Z,97803.95
2023-05-10T22:15:43.779Z,97807.27
2023-05-10T22:18:11.505Z,97805.21
2023-05-10T22:20:39.125Z,97801.91
2023-05-10T22:23:07.151Z,97801.59
2023-05-10T22:25:34.789Z,97793.75
2023-05-10T22:28:02.600Z,97809.47
2023-05-10T22:30:32.906Z,97807.24
2023-05-10T22:33:00.514Z,97807.64
2023-05-10T22:35:29.230Z,97811.84
2023-05-10T22:37:57.131Z,97810.59
2023-05-10T22:40:24.887Z,97805.94
2023-05-10T22:42:52.720Z,97816.52
2023-05-10T22:45:20.550Z,97817.20
2023-05-10T22:47:48.378Z,97809.53
2023-05-10T22:50:16.912Z,97811.03
2023-05-10T22:52:44.849Z,97810.37
2023-05-10T22:55:12.951Z,97807.80
2023-05-10T22:57:41.412Z,97810.64
2023-05-10T23:00:10.309Z,97804.08
2023-05-10T23:02:37.857Z,97806.83
2023-05-10T23:05:07.374Z,97804.76
2023-05-10T23:07:35.351Z,97801.17
2023-05-10T23:10:03.245Z,97805.03
2023-05-10T23:12:30.924Z,97808.95
2023-05-10T23:14:59.005Z,97803.72
2023-05-10T23:17:26.712Z,97801.15
2023-05-10T23:19:54.558Z,97793.00
2023-05-10T23:22:22.186Z,97798.48
2023-05-10T23:24:49.916Z,97801.88
2023-05-10T23:27:17.614Z,97796.94
2023-05-10T23:29:45.394Z,97793.80
2023-05-10T23:32:13.372Z,97790.77
2023-05-10T23:34:41.012Z,97793.09
2023-05-10T23:37:08.841Z,97793.28
2023-05-10T23:39:36.530Z,97792.68
2023-05-10T23:42:04.139Z,97800.83
2023-05-10T23:44:31.979Z,97797.78
2023-05-10T23:46:59.530Z,97796.02
2023-05-10T23:49:27.179Z,97799.12
2023-05-10T23:51:55.024Z,97809.42
2023-05-10T23:54:22.850Z,97799.66
2023-05-10T23:56:51.057Z,97799.20
2023-05-10T23:59:18.533Z,97805.25
